createdAt,value
2023-04-06T00:00:47.501Z,100683.81
2023-04-06T00:03:50.551Z,100680.28
2023-04-06T00:06:53.217Z,100687.41
2023-04-06T00:09:55.891Z,100682.94
2023-04-06T00:12:58.580Z,100682.97
2023-04-06T00:16:03.612Z,100679.41
2023-04-06T00:19:06.625Z,100687.41
2023-04-06T00:22:09.563Z,100682.97
2023-04-06T00:25:12.493Z,100685.66
2023-04-06T00:28:15.501Z,100681.22
2023-04-06T00:31:19.540Z,100679.47
2023-04-06T00:34:22.290Z,100678.53
2023-04-06T00:37:25.042Z,100656.34
2023-04-06T00:40:29.365Z,100672.34
2023-04-06T00:43:32.042Z,100671.47
2023-04-06T00:46:36.635Z,100668.78
2023-04-06T00:49:39.364Z,100665.25
2023-04-06T00:52:42.010Z,100663.47
2023-04-06T00:55:44.705Z,100665.25
2023-04-06T00:58:47.499Z,100660.81
2023-04-06T01:01:51.717Z,100652.78
2023-04-06T01:04:54.986Z,100650.16
2023-04-06T01:07:58.117Z,100662.59
2023-04-06T01:11:02.016Z,100651.91
2023-04-06T01:14:05.453Z,100656.41
2023-04-06T01:17:09.589Z,100654.59
2023-04-06T01:20:12.245Z,100653.72
2023-04-06T01:23:16.418Z,100650.16
2023-04-06T01:26:19.252Z,100650.16
2023-04-06T01:29:21.980Z,100635.94
2023-04-06T01:32:24.816Z,100635.06
2023-04-06T01:35:28.405Z,100651.97
2023-04-06T01:38:32.477Z,100640.41
2023-04-06T01:41:35.400Z,100645.75
2023-04-06T01:44:38.190Z,100640.41
2023-04-06T01:47:40.894Z,100641.28
2023-04-06T01:50:43.576Z,100627.09
2023-04-06T01:53:47.605Z,100639.53
2023-04-06T01:56:51.613Z,100634.22
2023-04-06T01:59:54.329Z,100635.97
2023-04-06T02:02:57.040Z,100622.66
2023-04-06T02:06:00.289Z,100635.97
2023-04-06T02:09:04.622Z,100638.63
2023-04-06T02:12:07.830Z,100631.50
2023-04-06T02:15:11.460Z,100627.06
2023-04-06T02:18:14.150Z,100629.75
2023-04-06T02:21:21.002Z,100624.41
2023-04-06T02:24:25.070Z,100628.84
2023-04-06T02:27:27.756Z,100625.31
2023-04-06T02:30:38.305Z,100622.63
2023-04-06T02:33:41.030Z,100627.97
2023-04-06T02:36:43.833Z,100621.75
2023-04-06T02:39:48.323Z,100617.31
2023-04-06T02:42:51.006Z,100619.06
2023-04-06T02:45:53.712Z,100619.06
2023-04-06T02:48:57.254Z,100620.84
2023-04-06T02:51:59.948Z,100619.06
2023-04-06T02:55:04.075Z,100625.28
2023-04-06T02:58:06.837Z,100616.41
2023-04-06T03:01:09.924Z,100623.50
2023-04-06T03:04:12.862Z,100622.59
2023-04-06T03:07:15.907Z,100627.94
2023-04-06T03:10:19.941Z,100626.16
2023-04-06T03:13:23.076Z,100626.16
2023-04-06T03:16:25.888Z,100631.47
2023-04-06T03:19:28.739Z,100627.91
2023-04-06T03:22:31.490Z,100632.38
2023-04-06T03:25:35.594Z,100628.81
2023-04-06T03:28:38.354Z,100626.13
2023-04-06T03:31:41.067Z,100626.13
2023-04-06T03:34:43.802Z,100602.16
2023-04-06T03:37:46.720Z,100626.16
2023-04-06T03:40:50.782Z,100636.78
2023-04-06T03:43:53.462Z,100631.44
2023-04-06T03:46:57.085Z,100638.53
2023-04-06T03:49:59.816Z,100636.75
2023-04-06T03:53:04.061Z,100642.03
2023-04-06T03:56:08.766Z,100637.56
2023-04-06T03:59:11.693Z,100645.56
2023-04-06T04:02:14.536Z,100644.66
2023-04-06T04:05:17.366Z,100647.31
2023-04-06T04:08:20.351Z,100649.06
2023-04-06T04:11:24.363Z,100647.28
2023-04-06T04:14:27.508Z,100647.25
2023-04-06T04:17:30.199Z,100658.81
2023-04-06T04:20:32.928Z,100650.84
2023-04-06T04:23:37.354Z,100652.59
2023-04-06T04:26:42.385Z,100632.13
2023-04-06T04:29:45.217Z,100661.47
2023-04-06T04:32:47.981Z,100652.56
2023-04-06T04:35:50.863Z,100658.88
2023-04-06T04:38:53.792Z,100657.13
2023-04-06T04:41:57.890Z,100656.19
2023-04-06T04:45:00.789Z,100660.59
2023-04-06T04:48:03.685Z,100671.28
2023-04-06T04:51:07.175Z,100674.88
2023-04-06T04:54:09.915Z,100666.00
2023-04-06T04:57:14.055Z,100668.66
2023-04-06T05:00:17.169Z,100674.88
2023-04-06T05:03:23.213Z,100672.16
2023-04-06T05:06:26.556Z,100674.78
2023-04-06T05:09:31.548Z,100672.22
2023-04-06T05:12:35.812Z,100667.81
2023-04-06T05:15:41.190Z,100672.16
2023-04-06T05:18:44.007Z,100682.84
2023-04-06T05:21:46.702Z,100673.09
2023-04-06T05:24:49.341Z,100674.97
2023-04-06T05:27:53.546Z,100650.06
2023-04-06T05:30:56.455Z,100681.19
2023-04-06T05:33:59.558Z,100676.78
2023-04-06T05:37:02.298Z,100685.63
2023-04-06T05:40:06.002Z,100689.19
2023-04-06T05:43:10.372Z,100690.97
2023-04-06T05:46:13.145Z,100697.16
2023-04-06T05:49:15.894Z,100690.06
2023-04-06T05:52:19.568Z,100685.72
2023-04-06T05:55:22.262Z,100688.38
2023-04-06T05:58:29.360Z,100694.63
2023-04-06T06:01:32.035Z,100682.19
2023-04-06T06:04:34.906Z,100691.97
2023-04-06T06:07:37.668Z,100692.88
2023-04-06T06:10:41.084Z,100682.91
2023-04-06T06:13:45.244Z,100671.06
2023-04-06T06:16:48.075Z,100661.72
2023-04-06T06:19:50.772Z,100656.97
2023-04-06T06:22:53.614Z,100655.63
2023-04-06T06:25:58.897Z,100647.91
2023-04-06T06:29:03.126Z,100647.41
2023-04-06T06:32:06.198Z,100639.25
2023-04-06T06:35:09.777Z,100643.88
2023-04-06T06:38:12.472Z,100631.53
2023-04-06T06:41:15.198Z,100639.38
2023-04-06T06:44:19.311Z,100642.72
2023-04-06T06:47:22.255Z,100646.16
2023-04-06T06:50:24.972Z,100642.59
2023-04-06T06:53:27.634Z,100646.88
2023-04-06T06:56:32.486Z,100641.13
2023-04-06T06:59:36.743Z,100638.34
2023-04-06T07:02:39.593Z,100639.06
2023-04-06T07:05:50.116Z,100634.31
2023-04-06T07:08:52.883Z,100625.44
2023-04-06T07:11:57.430Z,100636.03
2023-04-06T07:15:02.137Z,100638.38
2023-04-06T07:18:05.096Z,100637.69
2023-04-06T07:21:08.429Z,100632.56
2023-04-06T07:24:11.405Z,100637.97
2023-04-06T07:27:14.233Z,100634.47
2023-04-06T07:30:19.209Z,100637.28
2023-04-06T07:33:21.997Z,100633.50
2023-04-06T07:36:24.713Z,100635.16
2023-04-06T07:39:27.859Z,100628.88
2023-04-06T07:42:30.666Z,100637.59
2023-04-06T07:45:34.716Z,100633.00
2023-04-06T07:48:38.574Z,100625.03
2023-04-06T07:51:41.709Z,100611.75
2023-04-06T07:54:45.167Z,100624.94
2023-04-06T07:57:47.854Z,100621.34
2023-04-06T08:00:51.885Z,100622.19
2023-04-06T08:03:56.686Z,100606.97
2023-04-06T08:06:59.536Z,100609.47
2023-04-06T08:10:02.203Z,100605.50
2023-04-06T08:13:04.891Z,100607.13
2023-04-06T08:16:09.756Z,100597.38
2023-04-06T08:19:12.534Z,100574.00
2023-04-06T08:22:15.400Z,100595.06
2023-04-06T08:25:18.379Z,100592.13
2023-04-06T08:28:21.143Z,100557.28
2023-04-06T08:31:25.449Z,100589.59
2023-04-06T08:34:28.241Z,100586.72
2023-04-06T08:37:30.950Z,100577.78
2023-04-06T08:40:38.529Z,100571.03
2023-04-06T08:43:48.262Z,100572.41
2023-04-06T08:46:53.942Z,100563.28
2023-04-06T08:49:57.635Z,100567.09
2023-04-06T08:53:02.238Z,100551.84
2023-04-06T08:56:07.690Z,100561.88
2023-04-06T08:59:11.361Z,100562.44
2023-04-06T09:02:19.466Z,100557.88
2023-04-06T09:05:22.645Z,100557.63
2023-04-06T09:08:25.945Z,100550.91
2023-04-06T09:11:28.665Z,100546.97
2023-04-06T09:14:38.589Z,100536.28
2023-04-06T09:17:47.310Z,100536.22
2023-04-06T09:20:59.453Z,100541.94
2023-04-06T09:24:03.053Z,100529.72
2023-04-06T09:27:05.880Z,100524.13
2023-04-06T09:30:10.912Z,100522.16
2023-04-06T09:33:14.962Z,100519.41
2023-04-06T09:36:17.674Z,100510.28
2023-04-06T09:39:23.211Z,100501.28
2023-04-06T09:42:26.971Z,100503.00
2023-04-06T09:45:32.089Z,100494.69
2023-04-06T09:48:38.007Z,100482.53
2023-04-06T09:51:42.716Z,100493.63
2023-04-06T09:54:48.977Z,100480.53
2023-04-06T09:57:57.686Z,100475.63
2023-04-06T10:01:05.270Z,100479.63
2023-04-06T10:04:21.701Z,100467.13
2023-04-06T10:07:25.341Z,100462.59
2023-04-06T10:10:28.440Z,100456.63
2023-04-06T10:13:31.153Z,100458.09
2023-04-06T10:16:34.553Z,100455.81
2023-04-06T10:19:48.319Z,100445.47
2023-04-06T10:22:58.018Z,100443.63
2023-04-06T10:26:02.689Z,100433.69
2023-04-06T10:29:06.378Z,100432.88
2023-04-06T10:32:09.174Z,100427.53
2023-04-06T10:35:15.381Z,100428.56
2023-04-06T10:38:22.688Z,100428.88
2023-04-06T10:41:26.720Z,100426.06
2023-04-06T10:44:29.404Z,100424.91
2023-04-06T10:47:41.082Z,100420.63
2023-04-06T10:50:46.165Z,100419.91
2023-04-06T10:53:50.504Z,100431.88
2023-04-06T10:56:53.185Z,100422.19
2023-04-06T10:59:55.891Z,100393.59
2023-04-06T11:03:01.450Z,100394.91
2023-04-06T11:06:05.534Z,100402.81
2023-04-06T11:09:08.217Z,100408.53
2023-04-06T11:12:22.902Z,100402.84
2023-04-06T11:15:25.623Z,100403.34
2023-04-06T11:18:28.365Z,100395.06
2023-04-06T11:21:40.085Z,100397.44
2023-04-06T11:24:42.844Z,100387.47
2023-04-06T11:27:46.666Z,100387.28
2023-04-06T11:30:49.455Z,100384.94
2023-04-06T11:33:57.596Z,100371.44
2023-04-06T11:37:05.589Z,100365.03
2023-04-06T11:40:10.635Z,100364.69
2023-04-06T11:43:13.644Z,100364.38
2023-04-06T11:46:21.056Z,100352.94
2023-04-06T11:49:23.922Z,100352.31
2023-04-06T11:52:30.619Z,100351.03
2023-04-06T11:55:40.138Z,100337.13
2023-04-06T11:58:42.928Z,100335.13
2023-04-06T12:01:47.219Z,100329.56
2023-04-06T12:04:50.012Z,100328.53
2023-04-06T12:07:54.124Z,100324.78
2023-04-06T12:10:56.800Z,100322.75
2023-04-06T12:14:00.400Z,100327.97
2023-04-06T12:17:04.044Z,100327.34
2023-04-06T12:20:22.154Z,100321.25
2023-04-06T12:23:29.093Z,100311.47
2023-04-06T12:26:32.674Z,100316.06
2023-04-06T12:29:35.367Z,100314.59
2023-04-06T12:32:38.079Z,100316.63
2023-04-06T12:35:40.935Z,100312.59
2023-04-06T12:38:46.721Z,100312.94
2023-04-06T12:41:49.570Z,100319.75
2023-04-06T12:44:52.443Z,100310.53
2023-04-06T12:47:55.163Z,100309.72
2023-04-06T12:50:59.477Z,100316.38
2023-04-06T12:54:03.607Z,100303.69
2023-04-06T12:57:06.379Z,100298.91
2023-04-06T13:00:10.122Z,100304.75
2023-04-06T13:03:13.110Z,100307.78
2023-04-06T13:06:16.358Z,100307.19
2023-04-06T13:09:20.581Z,100300.66
2023-04-06T13:12:23.295Z,100297.78
2023-04-06T13:15:26.599Z,100286.53
2023-04-06T13:18:29.584Z,100291.84
2023-04-06T13:21:32.535Z,100295.09
2023-04-06T13:24:36.696Z,100292.53
2023-04-06T13:27:39.546Z,100286.78
2023-04-06T13:30:43.303Z,100286.66
2023-04-06T13:33:46.364Z,100291.78
2023-04-06T13:36:49.356Z,100296.59
2023-04-06T13:39:53.594Z,100289.44
2023-04-06T13:42:56.479Z,100285.50
2023-04-06T13:46:02.078Z,100283.53
2023-04-06T13:49:04.902Z,100286.28
2023-04-06T13:52:07.864Z,100275.97
2023-04-06T13:55:12.194Z,100288.66
2023-04-06T13:58:14.960Z,100280.72
2023-04-06T14:01:17.890Z,100277.09
2023-04-06T14:04:20.768Z,100274.78
2023-04-06T14:07:24.746Z,100275.56
2023-04-06T14:10:29.188Z,100276.22
2023-04-06T14:13:32.331Z,100272.41
2023-04-06T14:16:35.162Z,100271.84
2023-04-06T14:19:38.668Z,100278.94
2023-04-06T14:22:42.081Z,100278.38
2023-04-06T14:25:46.153Z,100280.94
2023-04-06T14:28:49.180Z,100270.16
2023-04-06T14:31:51.860Z,100278.06
2023-04-06T14:34:54.549Z,100277.28
2023-04-06T14:37:59.102Z,100282.56
2023-04-06T14:41:03.461Z,100271.03
2023-04-06T14:44:06.826Z,100279.66
2023-04-06T14:47:09.592Z,100273.50
2023-04-06T14:50:12.475Z,100272.16
2023-04-06T14:53:15.224Z,100273.91
2023-04-06T14:56:23.363Z,100269.28
2023-04-06T14:59:26.178Z,100270.91
2023-04-06T15:02:29.167Z,100264.28
2023-04-06T15:05:32.287Z,100264.09
2023-04-06T15:08:35.453Z,100266.59
2023-04-06T15:11:39.511Z,100254.25
2023-04-06T15:14:42.212Z,100257.53
2023-04-06T15:17:44.944Z,100267.59
2023-04-06T15:20:47.665Z,100266.06
2023-04-06T15:23:50.934Z,100261.66
2023-04-06T15:26:55.012Z,100260.00
2023-04-06T15:29:59.417Z,100256.78
2023-04-06T15:33:04.499Z,100256.13
2023-04-06T15:36:10.513Z,100258.97
2023-04-06T15:39:14.497Z,100253.91
2023-04-06T15:42:18.728Z,100247.84
2023-04-06T15:45:21.373Z,100252.53
2023-04-06T15:48:25.769Z,100253.53
2023-04-06T15:51:30.119Z,100251.00
2023-04-06T15:54:33.667Z,100243.31
2023-04-06T15:57:37.756Z,100250.75
2023-04-06T16:00:40.629Z,100238.81
2023-04-06T16:03:43.686Z,100242.50
2023-04-06T16:06:46.761Z,100247.47
2023-04-06T16:09:50.416Z,100245.22
2023-04-06T16:12:55.603Z,100236.44
2023-04-06T16:15:58.397Z,100238.59
2023-04-06T16:19:02.152Z,100245.59
2023-04-06T16:22:04.857Z,100243.44
2023-04-06T16:25:08.894Z,100248.38
2023-04-06T16:28:13.170Z,100257.19
2023-04-06T16:31:21.167Z,100246.03
2023-04-06T16:34:24.006Z,100257.16
2023-04-06T16:37:29.627Z,100254.31
2023-04-06T16:40:32.332Z,100266.56
2023-04-06T16:43:36.468Z,100260.66
2023-04-06T16:46:39.947Z,100254.66
2023-04-06T16:49:43.188Z,100262.41
2023-04-06T16:52:45.944Z,100269.00
2023-04-06T16:55:48.686Z,100255.94
2023-04-06T16:58:52.844Z,100253.56
2023-04-06T17:01:56.163Z,100251.91
2023-04-06T17:04:58.957Z,100259.72
2023-04-06T17:08:02.131Z,100260.88
2023-04-06T17:11:05.101Z,100251.53
2023-04-06T17:14:10.698Z,100248.31
2023-04-06T17:17:13.452Z,100254.16
2023-04-06T17:20:17.849Z,100252.75
2023-04-06T17:23:21.177Z,100259.59
2023-04-06T17:26:24.091Z,100267.22
2023-04-06T17:29:28.143Z,100262.28
2023-04-06T17:32:30.974Z,100262.69
2023-04-06T17:35:33.621Z,100259.47
2023-04-06T17:38:36.777Z,100264.38
2023-04-06T17:41:39.755Z,100271.16
2023-04-06T17:44:43.937Z,100259.84
2023-04-06T17:47:46.702Z,100259.66
2023-04-06T17:50:49.668Z,100279.72
2023-04-06T17:53:52.654Z,100276.53
2023-04-06T17:56:55.853Z,100276.06
2023-04-06T17:59:59.981Z,100286.19
2023-04-06T18:03:03.822Z,100288.00
2023-04-06T18:06:11.448Z,100294.72
2023-04-06T18:09:14.140Z,100308.34
2023-04-06T18:12:16.798Z,100313.06
2023-04-06T18:15:20.975Z,100317.94
2023-04-06T18:18:23.744Z,100321.75
2023-04-06T18:21:27.325Z,100319.66
2023-04-06T18:24:41.157Z,100322.63
2023-04-06T18:27:44.564Z,100320.88
2023-04-06T18:30:49.141Z,100332.84
2023-04-06T18:33:53.768Z,100327.50
2023-04-06T18:36:57.343Z,100333.78
2023-04-06T18:40:00.114Z,100343.84
2023-04-06T18:43:04.667Z,100333.78
2023-04-06T18:46:13.716Z,100335.69
2023-04-06T18:49:16.716Z,100344.66
2023-04-06T18:52:19.513Z,100345.09
2023-04-06T18:55:22.180Z,100349.56
2023-04-06T18:58:26.122Z,100354.16
2023-04-06T19:01:32.118Z,100357.69
2023-04-06T19:04:35.107Z,100353.97
2023-04-06T19:07:38.043Z,100345.66
2023-04-06T19:10:40.897Z,100360.69
2023-04-06T19:13:49.951Z,100347.72
2023-04-06T19:16:54.336Z,100349.63
2023-04-06T19:19:57.753Z,100346.91
2023-04-06T19:23:00.660Z,100345.97
2023-04-06T19:26:03.726Z,100352.03
2023-04-06T19:29:06.444Z,100361.44
2023-04-06T19:32:11.838Z,100365.03
2023-04-06T19:35:14.694Z,100366.91
2023-04-06T19:38:17.600Z,100356.94
2023-04-06T19:41:21.507Z,100364.38
2023-04-06T19:44:24.732Z,100370.00
2023-04-06T19:47:28.987Z,100370.06
2023-04-06T19:50:31.800Z,100368.25
2023-04-06T19:53:34.537Z,100376.59
2023-04-06T19:56:37.232Z,100373.84
2023-04-06T19:59:40.087Z,100381.97
2023-04-06T20:02:44.477Z,100382.91
2023-04-06T20:05:47.723Z,100380.13
2023-04-06T20:08:50.636Z,100381.03
2023-04-06T20:11:54.129Z,100392.72
2023-04-06T20:14:57.751Z,100397.44
2023-04-06T20:18:02.284Z,100399.13
2023-04-06T20:21:05.341Z,100397.56
2023-04-06T20:24:08.057Z,100407.69
2023-04-06T20:27:11.002Z,100406.00
2023-04-06T20:30:14.952Z,100408.13
2023-04-06T20:33:18.949Z,100419.97
2023-04-06T20:36:23.107Z,100409.44
2023-04-06T20:39:27.308Z,100394.63
2023-04-06T20:42:30.066Z,100406.97
2023-04-06T20:45:38.270Z,100416.97
2023-04-06T20:48:42.308Z,100414.47
2023-04-06T20:51:45.769Z,100408.03
2023-04-06T20:54:48.508Z,100417.28
2023-04-06T20:57:51.335Z,100417.41
2023-04-06T21:00:54.688Z,100416.50
2023-04-06T21:04:00.584Z,100424.72
2023-04-06T21:07:05.916Z,100426.53
2023-04-06T21:10:09.493Z,100427.56
2023-04-06T21:13:12.212Z,100425.00
2023-04-06T21:16:15.018Z,100435.06
2023-04-06T21:19:19.175Z,100434.41
2023-04-06T21:22:21.888Z,100438.28
2023-04-06T21:25:24.511Z,100430.44
2023-04-06T21:28:27.831Z,100438.56
2023-04-06T21:31:30.615Z,100437.84
2023-04-06T21:34:34.964Z,100434.47
2023-04-06T21:37:37.690Z,100435.47
2023-04-06T21:40:40.336Z,100444.59
2023-04-06T21:43:42.985Z,100434.81
2023-04-06T21:46:45.713Z,100438.47
2023-04-06T21:49:49.851Z,100436.75
2023-04-06T21:52:52.617Z,100434.81
2023-04-06T21:55:55.269Z,100422.31
2023-04-06T21:58:57.954Z,100431.66
2023-04-06T22:02:01.160Z,100421.22
2023-04-06T22:05:06.015Z,100430.44
2023-04-06T22:08:13.032Z,100423.38
2023-04-06T22:11:21.137Z,100419.94
2023-04-06T22:14:23.998Z,100422.88
2023-04-06T22:17:27.318Z,100419.47
2023-04-06T22:20:31.728Z,100412.31
2023-04-06T22:23:34.450Z,100409.66
2023-04-06T22:26:37.930Z,100408.34
2023-04-06T22:29:40.794Z,100413.94
2023-04-06T22:32:43.510Z,100411.19
2023-04-06T22:35:47.536Z,100413.94
2023-04-06T22:38:51.015Z,100412.13
2023-04-06T22:41:53.671Z,100409.28
2023-04-06T22:44:56.337Z,100406.66
2023-04-06T22:47:59.045Z,100358.41
2023-04-06T22:51:03.120Z,100404.50
2023-04-06T22:54:05.935Z,100409.16
2023-04-06T22:57:08.768Z,100401.81
2023-04-06T23:00:13.140Z,100410.41
2023-04-06T23:03:15.974Z,100412.31
2023-04-06T23:06:20.100Z,100401.81
2023-04-06T23:09:22.837Z,100404.00
2023-04-06T23:12:25.828Z,100388.84
2023-04-06T23:15:28.672Z,100399.50
2023-04-06T23:18:31.645Z,100399.84
2023-04-06T23:21:35.773Z,100399.28
2023-04-06T23:24:38.519Z,100397.28
2023-04-06T23:27:41.264Z,100405.59
2023-04-06T23:30:43.969Z,100399.09
2023-04-06T23:33:46.711Z,100400.53
2023-04-06T23:36:51.058Z,100393.28
2023-04-06T23:39:53.843Z,100395.69
2023-04-06T23:42:56.516Z,100389.06
2023-04-06T23:45:59.270Z,100386.28
2023-04-06T23:49:01.989Z,100387.13
2023-04-06T23:52:06.218Z,100380.69
2023-04-06T23:55:09.626Z,100380.00
2023-04-06T23:58:12.311Z,100380.38
